sensor_id;sensor_type;location;lat;lon;timestamp;pressure;altitude;pressure_sealevel;temperature;humidity
78615;BME280;67937;52.488;20.952;2023-12-20T00:01:37;99785.96;;;5.22;100.00
78615;BME280;67937;52.488;20.952;2023-12-20T00:04:06;99786.11;;;5.19;100.00
78615;BME280;67937;52.488;20.952;2023-12-20T00:06:34;99785.39;;;5.26;100.00
78615;BME280;67937;52.488;20.952;2023-12-20T00:09:02;99788.77;;;5.25;100.00
78615;BME280;67937;52.488;20.952;2023-12-20T00:11:30;99785.31;;;5.30;100.00
78615;BME280;67937;52.488;20.952;2023-12-20T00:13:58;99787.79;;;5.32;100.00
78615;BME280;67937;52.488;20.952;2023-12-20T00:16:26;99781.37;;;5.31;100.00
78615;BME280;67937;52.488;20.952;2023-12-20T00:18:54;99778.71;;;5.29;100.00
78615;BME280;67937;52.488;20.952;2023-12-20T00:21:22;99778.40;;;5.31;100.00
78615;BME280;67937;52.488;20.952;2023-12-20T00:23:50;99782.57;;;5.29;100.00
78615;BME280;67937;52.488;20.952;2023-12-20T00:26:18;99775.44;;;5.31;100.00
78615;BME280;67937;52.488;20.952;2023-12-20T00:28:46;99771.80;;;5.33;100.00
78615;BME280;67937;52.488;20.952;2023-12-20T00:31:14;99768.14;;;5.35;100.00
78615;BME280;67937;52.488;20.952;2023-12-20T00:33:42;99766.88;;;5.33;100.00
78615;BME280;67937;52.488;20.952;2023-12-20T00:36:10;99765.46;;;5.33;100.00
78615;BME280;67937;52.488;20.952;2023-12-20T00:38:38;99763.59;;;5.38;100.00
78615;BME280;67937;52.488;20.952;2023-12-20T00:41:06;99760.91;;;5.39;100.00
78615;BME280;67937;52.488;20.952;2023-12-20T00:43:34;99761.11;;;5.36;100.00
78615;BME280;67937;52.488;20.952;2023-12-20T00:46:02;99758.59;;;5.42;100.00
78615;BME280;67937;52.488;20.952;2023-12-20T00:48:30;99758.58;;;5.39;100.00
78615;BME280;67937;52.488;20.952;2023-12-20T00:50:58;99754.56;;;5.45;100.00
78615;BME280;67937;52.488;20.952;2023-12-20T00:53:26;99754.91;;;5.47;100.00
78615;BME280;67937;52.488;20.952;2023-12-20T00:55:54;99760.23;;;5.48;100.00
78615;BME280;67937;52.488;20.952;2023-12-20T00:58:22;99758.39;;;5.45;100.00
78615;BME280;67937;52.488;20.952;2023-12-20T01:00:50;99758.58;;;5.47;100.00
78615;BME280;67937;52.488;20.952;2023-12-20T01:03:18;99753.58;;;5.49;100.00
78615;BME280;67937;52.488;20.952;2023-12-20T01:05:46;99747.05;;;5.44;100.00
78615;BME280;67937;52.488;20.952;2023-12-20T01:08:14;99749.50;;;5.47;100.00
78615;BME280;67937;52.488;20.952;2023-12-20T01:10:42;99745.25;;;5.48;100.00
78615;BME280;67937;52.488;20.952;2023-12-20T01:13:10;99752.31;;;5.47;100.00
78615;BME280;67937;52.488;20.952;2023-12-20T01:15:38;99752.73;;;5.51;100.00
78615;BME280;67937;52.488;20.952;2023-12-20T01:18:06;99750.91;;;5.47;100.00
78615;BME280;67937;52.488;20.952;2023-12-20T01:20:33;99752.63;;;5.52;100.00
78615;BME280;67937;52.488;20.952;2023-12-20T01:23:01;99749.81;;;5.55;100.00
78615;BME280;67937;52.488;20.952;2023-12-20T01:25:29;99748.60;;;5.50;100.00
78615;BME280;67937;52.488;20.952;2023-12-20T01:27:57;99749.52;;;5.49;100.00
78615;BME280;67937;52.488;20.952;2023-12-20T01:30:25;99751.24;;;5.49;100.00
78615;BME280;67937;52.488;20.952;2023-12-20T01:32:53;99740.69;;;5.48;100.00
78615;BME280;67937;52.488;20.952;2023-12-20T01:35:21;99731.95;;;5.50;100.00
78615;BME280;67937;52.488;20.952;2023-12-20T01:37:49;99731.04;;;5.48;100.00
78615;BME280;67937;52.488;20.952;2023-12-20T01:40:17;99731.83;;;5.49;100.00
78615;BME280;67937;52.488;20.952;2023-12-20T01:42:45;99729.76;;;5.49;100.00
78615;BME280;67937;52.488;20.952;2023-12-20T01:45:13;99726.33;;;5.51;100.00
78615;BME280;67937;52.488;20.952;2023-12-20T01:47:41;99727.52;;;5.51;100.00
78615;BME280;67937;52.488;20.952;2023-12-20T01:50:09;99724.13;;;5.50;100.00
78615;BME280;67937;52.488;20.952;2023-12-20T01:52:37;99719.39;;;5.52;100.00
78615;BME280;67937;52.488;20.952;2023-12-20T01:55:06;99723.09;;;5.52;100.00
78615;BME280;67937;52.488;20.952;2023-12-20T01:57:40;99719.52;;;5.48;100.00
78615;BME280;67937;52.488;20.952;2023-12-20T02:00:09;99719.20;;;5.47;100.00
78615;BME280;67937;52.488;20.952;2023-12-20T02:02:39;99716.42;;;5.47;100.00
78615;BME280;67937;52.488;20.952;2023-12-20T02:05:08;99714.31;;;5.45;100.00
78615;BME280;67937;52.488;20.952;2023-12-20T02:07:36;99709.92;;;5.50;100.00
78615;BME280;67937;52.488;20.952;2023-12-20T02:10:04;99711.81;;;5.50;100.00
78615;BME280;67937;52.488;20.952;2023-12-20T02:12:32;99710.70;;;5.49;100.00
78615;BME280;67937;52.488;20.952;2023-12-20T02:15:01;99707.04;;;5.46;100.00
78615;BME280;67937;52.488;20.952;2023-12-20T02:17:29;99709.66;;;5.44;100.00
78615;BME280;67937;52.488;20.952;2023-12-20T02:19:57;99700.40;;;5.48;100.00
78615;BME280;67937;52.488;20.952;2023-12-20T02:22:25;99704.35;;;5.50;100.00
78615;BME280;67937;52.488;20.952;2023-12-20T02:24:53;99702.84;;;5.46;100.00
78615;BME280;67937;52.488;20.952;2023-12-20T02:27:22;99701.89;;;5.47;100.00
78615;BME280;67937;52.488;20.952;2023-12-20T02:29:51;99701.29;;;5.46;100.00
78615;BME280;67937;52.488;20.952;2023-12-20T02:32:19;99703.91;;;5.46;100.00
78615;BME280;67937;52.488;20.952;2023-12-20T02:34:48;99702.70;;;5.43;100.00
78615;BME280;67937;52.488;20.952;2023-12-20T02:37:16;99700.05;;;5.48;100.00
78615;BME280;67937;52.488;20.952;2023-12-20T02:39:44;99683.69;;;5.47;100.00
78615;BME280;67937;52.488;20.952;2023-12-20T02:42:12;99683.40;;;5.41;100.00
78615;BME280;67937;52.488;20.952;2023-12-20T02:44:40;99685.58;;;5.43;100.00
78615;BME280;67937;52.488;20.952;2023-12-20T02:47:08;99676.05;;;5.42;100.00
78615;BME280;67937;52.488;20.952;2023-12-20T02:49:36;99670.94;;;5.40;100.00
78615;BME280;67937;52.488;20.952;2023-12-20T02:52:04;99679.25;;;5.41;100.00
78615;BME280;67937;52.488;20.952;2023-12-20T02:54:32;99686.59;;;5.38;100.00
78615;BME280;67937;52.488;20.952;2023-12-20T02:57:00;99680.90;;;5.37;100.00
78615;BME280;67937;52.488;20.952;2023-12-20T02:59:28;99672.14;;;5.40;100.00
78615;BME280;67937;52.488;20.952;2023-12-20T03:01:56;99671.91;;;5.38;100.00
78615;BME280;67937;52.488;20.952;2023-12-20T03:04:24;99665.73;;;5.39;100.00
78615;BME280;67937;52.488;20.952;2023-12-20T03:06:52;99660.95;;;5.40;100.00
78615;BME280;67937;52.488;20.952;2023-12-20T03:09:19;99665.30;;;5.38;100.00
78615;BME280;67937;52.488;20.952;2023-12-20T03:11:47;99664.94;;;5.35;100.00
78615;BME280;67937;52.488;20.952;2023-12-20T03:14:15;99666.69;;;5.35;100.00
78615;BME280;67937;52.488;20.952;2023-12-20T03:16:49;99667.77;;;5.35;100.00
78615;BME280;67937;52.488;20.952;2023-12-20T03:19:18;99666.17;;;5.33;100.00
78615;BME280;67937;52.488;20.952;2023-12-20T03:21:46;99658.38;;;5.29;100.00
78615;BME280;67937;52.488;20.952;2023-12-20T03:24:14;99652.32;;;5.33;100.00
78615;BME280;67937;52.488;20.952;2023-12-20T03:26:42;99658.84;;;5.32;100.00
78615;BME280;67937;52.488;20.952;2023-12-20T03:29:10;99663.64;;;5.31;100.00
78615;BME280;67937;52.488;20.952;2023-12-20T03:31:38;99666.45;;;5.34;100.00
78615;BME280;67937;52.488;20.952;2023-12-20T03:34:05;99660.71;;;5.33;100.00
78615;BME280;67937;52.488;20.952;2023-12-20T03:36:33;99656.43;;;5.32;100.00
78615;BME280;67937;52.488;20.952;2023-12-20T03:39:01;99650.15;;;5.29;100.00
78615;BME280;67937;52.488;20.952;2023-12-20T03:41:29;99659.96;;;5.31;100.00
78615;BME280;67937;52.488;20.952;2023-12-20T03:43:57;99652.21;;;5.35;100.00
78615;BME280;67937;52.488;20.952;2023-12-20T03:46:25;99649.73;;;5.35;100.00
78615;BME280;67937;52.488;20.952;2023-12-20T03:48:53;99653.66;;;5.34;100.00
78615;BME280;67937;52.488;20.952;2023-12-20T03:51:21;99652.52;;;5.33;100.00
78615;BME280;67937;52.488;20.952;2023-12-20T03:53:49;99655.37;;;5.34;100.00
78615;BME280;67937;52.488;20.952;2023-12-20T03:56:17;99654.02;;;5.34;100.00
78615;BME280;67937;52.488;20.952;2023-12-20T03:58:45;99654.14;;;5.32;100.00
78615;BME280;67937;52.488;20.952;2023-12-20T04:01:13;99646.17;;;5.28;100.00
78615;BME280;67937;52.488;20.952;2023-12-20T04:03:41;99637.36;;;5.26;100.00
78615;BME280;67937;52.488;20.952;2023-12-20T04:06:09;99633.00;;;5.26;100.00
78615;BME280;67937;52.488;20.952;2023-12-20T04:08:37;99637.12;;;5.28;100.00
78615;BME280;67937;52.488;20.952;2023-12-20T04:11:04;99636.28;;;5.27;100.00
78615;BME280;67937;52.488;20.952;2023-12-20T04:13:32;99633.44;;;5.28;100.00
78615;BME280;67937;52.488;20.952;2023-12-20T04:16:00;99634.14;;;5.28;100.00
78615;BME280;67937;52.488;20.952;2023-12-20T04:18:28;99637.83;;;5.28;100.00
78615;BME280;67937;52.488;20.952;2023-12-20T04:20:58;99635.29;;;5.29;100.00
78615;BME280;67937;52.488;20.952;2023-12-20T04:23:26;99635.80;;;5.26;100.00
78615;BME280;67937;52.488;20.952;2023-12-20T04:25:54;99634.86;;;5.24;100.00
78615;BME280;67937;52.488;20.952;2023-12-20T04:28:23;99631.99;;;5.23;100.00
78615;BME280;67937;52.488;20.952;2023-12-20T04:30:51;99627.60;;;5.23;100.00
78615;BME280;67937;52.488;20.952;2023-12-20T04:33:19;99627.20;;;5.26;100.00
78615;BME280;67937;52.488;20.952;2023-12-20T04:35:47;99636.73;;;5.31;100.00
78615;BME280;67937;52.488;20.952;2023-12-20T04:38:15;99637.66;;;5.30;100.00
78615;BME280;67937;52.488;20.952;2023-12-20T04:40:43;99634.48;;;5.28;100.00
78615;BME280;67937;52.488;20.952;2023-12-20T04:43:11;99632.44;;;5.30;100.00
78615;BME280;67937;52.488;20.952;2023-12-20T04:45:39;99634.04;;;5.27;100.00
78615;BME280;67937;52.488;20.952;2023-12-20T04:48:07;99636.95;;;5.30;100.00
78615;BME280;67937;52.488;20.952;2023-12-20T04:50:35;99633.89;;;5.31;100.00
78615;BME280;67937;52.488;20.952;2023-12-20T04:53:03;99631.02;;;5.27;100.00
78615;BME280;67937;52.488;20.952;2023-12-20T04:55:31;99634.70;;;5.27;100.00
78615;BME280;67937;52.488;20.952;2023-12-20T04:57:59;99641.34;;;5.27;100.00
78615;BME280;67937;52.488;20.952;2023-12-20T05:00:27;99635.84;;;5.29;100.00
78615;BME280;67937;52.488;20.952;2023-12-20T05:02:55;99638.77;;;5.27;100.00
78615;BME280;67937;52.488;20.952;2023-12-20T05:05:23;99633.73;;;5.26;100.00
78615;BME280;67937;52.488;20.952;2023-12-20T05:07:51;99632.98;;;5.27;100.00
78615;BME280;67937;52.488;20.952;2023-12-20T05:10:19;99630.54;;;5.23;100.00
78615;BME280;67937;52.488;20.952;2023-12-20T05:12:47;99627.23;;;5.26;100.00
78615;BME280;67937;52.488;20.952;2023-12-20T05:15:15;99624.92;;;5.30;100.00
78615;BME280;67937;52.488;20.952;2023-12-20T05:17:43;99620.08;;;5.31;100.00
78615;BME280;67937;52.488;20.952;2023-12-20T05:20:11;99619.77;;;5.28;100.00
78615;BME280;67937;52.488;20.952;2023-12-20T05:22:39;99612.76;;;5.28;100.00
78615;BME280;67937;52.488;20.952;2023-12-20T05:25:07;99614.11;;;5.27;100.00
78615;BME280;67937;52.488;20.952;2023-12-20T05:27:35;99618.54;;;5.28;100.00
78615;BME280;67937;52.488;20.952;2023-12-20T05:30:03;99622.48;;;5.29;100.00
78615;BME280;67937;52.488;20.952;2023-12-20T05:32:31;99624.54;;;5.28;100.00
78615;BME280;67937;52.488;20.952;2023-12-20T05:34:59;99620.18;;;5.27;100.00
78615;BME280;67937;52.488;20.952;2023-12-20T05:37:27;99616.64;;;5.30;100.00
78615;BME280;67937;52.488;20.952;2023-12-20T05:39:55;99617.62;;;5.31;100.00
78615;BME280;67937;52.488;20.952;2023-12-20T05:42:23;99615.13;;;5.32;100.00
78615;BME280;67937;52.488;20.952;2023-12-20T05:44:51;99615.38;;;5.33;100.00
78615;BME280;67937;52.488;20.952;2023-12-20T05:47:19;99613.86;;;5.33;100.00
78615;BME280;67937;52.488;20.952;2023-12-20T05:49:46;99615.04;;;5.31;100.00
78615;BME280;67937;52.488;20.952;2023-12-20T05:52:14;99611.75;;;5.30;100.00
78615;BME280;67937;52.488;20.952;2023-12-20T05:54:42;99609.88;;;5.30;100.00
78615;BME280;67937;52.488;20.952;2023-12-20T05:57:10;99610.77;;;5.30;100.00
78615;BME280;67937;52.488;20.952;2023-12-20T05:59:38;99614.62;;;5.29;100.00
78615;BME280;67937;52.488;20.952;2023-12-20T06:02:06;99612.15;;;5.29;100.00
78615;BME280;67937;52.488;20.952;2023-12-20T06:04:34;99609.30;;;5.28;100.00
78615;BME280;67937;52.488;20.952;2023-12-20T06:07:02;99604.77;;;5.30;100.00
78615;BME280;67937;52.488;20.952;2023-12-20T06:09:30;99601.39;;;5.28;100.00
78615;BME280;67937;52.488;20.952;2023-12-20T06:11:58;99605.35;;;5.32;100.00
78615;BME280;67937;52.488;20.952;2023-12-20T06:14:26;99609.52;;;5.27;100.00
78615;BME280;67937;52.488;20.952;2023-12-20T06:16:54;99612.86;;;5.27;100.00
78615;BME280;67937;52.488;20.952;2023-12-20T06:19:22;99614.11;;;5.34;100.00
78615;BME280;67937;52.488;20.952;2023-12-20T06:21:50;99613.64;;;5.29;100.00
78615;BME280;67937;52.488;20.952;2023-12-20T06:24:18;99612.52;;;5.29;100.00
78615;BME280;67937;52.488;20.952;2023-12-20T06:26:45;99612.81;;;5.28;100.00
78615;BME280;67937;52.488;20.952;2023-12-20T06:29:13;99616.44;;;5.28;100.00
78615;BME280;67937;52.488;20.952;2023-12-20T06:31:41;99614.45;;;5.32;100.00
78615;BME280;67937;52.488;20.952;2023-12-20T06:34:09;99617.10;;;5.32;100.00
78615;BME280;67937;52.488;20.952;2023-12-20T06:36:37;99615.39;;;5.33;100.00
78615;BME280;67937;52.488;20.952;2023-12-20T06:39:05;99611.98;;;5.32;100.00
78615;BME280;67937;52.488;20.952;2023-12-20T06:41:33;99613.49;;;5.31;100.00
78615;BME280;67937;52.488;20.952;2023-12-20T06:44:01;99615.43;;;5.30;100.00
78615;BME280;67937;52.488;20.952;2023-12-20T06:46:29;99619.89;;;5.29;100.00
78615;BME280;67937;52.488;20.952;2023-12-20T06:48:57;99619.82;;;5.27;100.00
78615;BME280;67937;52.488;20.952;2023-12-20T06:51:25;99620.10;;;5.29;100.00
78615;BME280;67937;52.488;20.952;2023-12-20T06:53:53;99626.94;;;5.31;100.00
78615;BME280;67937;52.488;20.952;2023-12-20T06:56:21;99623.71;;;5.29;100.00
78615;BME280;67937;52.488;20.952;2023-12-20T06:58:48;99622.98;;;5.25;100.00
78615;BME280;67937;52.488;20.952;2023-12-20T07:01:16;99620.96;;;5.31;100.00
78615;BME280;67937;52.488;20.952;2023-12-20T07:03:44;99618.96;;;5.30;100.00
78615;BME280;67937;52.488;20.952;2023-12-20T07:06:12;99619.55;;;5.29;100.00
78615;BME280;67937;52.488;20.952;2023-12-20T07:08:42;99623.05;;;5.27;100.00
78615;BME280;67937;52.488;20.952;2023-12-20T07:11:10;99619.77;;;5.33;100.00
78615;BME280;67937;52.488;20.952;2023-12-20T07:13:38;99620.16;;;5.33;100.00
78615;BME280;67937;52.488;20.952;2023-12-20T07:16:06;99618.19;;;5.28;100.00
78615;BME280;67937;52.488;20.952;2023-12-20T07:18:34;99620.43;;;5.29;100.00
78615;BME280;67937;52.488;20.952;2023-12-20T07:22:05;99622.02;;;5.31;100.00
78615;BME280;67937;52.488;20.952;2023-12-20T07:24:33;99619.50;;;5.30;100.00
78615;BME280;67937;52.488;20.952;2023-12-20T07:27:02;99623.11;;;5.33;100.00
78615;BME280;67937;52.488;20.952;2023-12-20T07:29:29;99624.34;;;5.33;100.00
78615;BME280;67937;52.488;20.952;2023-12-20T07:31:57;99622.42;;;5.38;100.00
78615;BME280;67937;52.488;20.952;2023-12-20T07:34:25;99623.66;;;5.35;100.00
78615;BME280;67937;52.488;20.952;2023-12-20T07:36:53;99628.27;;;5.37;100.00
78615;BME280;67937;52.488;20.952;2023-12-20T07:39:21;99628.27;;;5.34;100.00
78615;BME280;67937;52.488;20.952;2023-12-20T07:41:49;99628.25;;;5.35;100.00
78615;BME280;67937;52.488;20.952;2023-12-20T07:44:17;99623.58;;;5.41;100.00
78615;BME280;67937;52.488;20.952;2023-12-20T07:46:45;99623.48;;;5.43;100.00
78615;BME280;67937;52.488;20.952;2023-12-20T07:49:15;99628.80;;;5.44;100.00
78615;BME280;67937;52.488;20.952;2023-12-20T07:51:43;99624.70;;;5.43;100.00
78615;BME280;67937;52.488;20.952;2023-12-20T07:54:11;99625.32;;;5.44;100.00
78615;BME280;67937;52.488;20.952;2023-12-20T07:56:39;99616.83;;;5.43;100.00
78615;BME280;67937;52.488;20.952;2023-12-20T07:59:07;99616.83;;;5.45;100.00
78615;BME280;67937;52.488;20.952;2023-12-20T08:01:35;99613.77;;;5.41;100.00
78615;BME280;67937;52.488;20.952;2023-12-20T08:04:03;99615.41;;;5.43;100.00
78615;BME280;67937;52.488;20.952;2023-12-20T08:06:31;99611.30;;;5.39;100.00
78615;BME280;67937;52.488;20.952;2023-12-20T08:08:59;99617.97;;;5.44;100.00
78615;BME280;67937;52.488;20.952;2023-12-20T08:11:28;99620.52;;;5.43;100.00
78615;BME280;67937;52.488;20.952;2023-12-20T08:13:56;99619.79;;;5.43;100.00
78615;BME280;67937;52.488;20.952;2023-12-20T08:16:24;99611.38;;;5.43;100.00
78615;BME280;67937;52.488;20.952;2023-12-20T08:18:52;99609.61;;;5.43;100.00
78615;BME280;67937;52.488;20.952;2023-12-20T08:21:21;99608.34;;;5.46;100.00
78615;BME280;67937;52.488;20.952;2023-12-20T08:23:49;99609.52;;;5.45;100.00
78615;BME280;67937;52.488;20.952;2023-12-20T08:26:19;99607.31;;;5.46;100.00
78615;BME280;67937;52.488;20.952;2023-12-20T08:28:48;99606.67;;;5.45;100.00
78615;BME280;67937;52.488;20.952;2023-12-20T08:31:17;99606.95;;;5.49;100.00
78615;BME280;67937;52.488;20.952;2023-12-20T08:33:46;99604.61;;;5.47;100.00
78615;BME280;67937;52.488;20.952;2023-12-20T08:36:14;99602.36;;;5.47;100.00
78615;BME280;67937;52.488;20.952;2023-12-20T08:38:44;99599.81;;;5.48;100.00
78615;BME280;67937;52.488;20.952;2023-12-20T08:41:12;99598.65;;;5.47;100.00
78615;BME280;67937;52.488;20.952;2023-12-20T08:43:40;99596.55;;;5.47;100.00
78615;BME280;67937;52.488;20.952;2023-12-20T08:46:08;99601.13;;;5.49;100.00
78615;BME280;67937;52.488;20.952;2023-12-20T08:48:37;99605.09;;;5.53;100.00
78615;BME280;67937;52.488;20.952;2023-12-20T08:51:05;99602.80;;;5.51;100.00
78615;BME280;67937;52.488;20.952;2023-12-20T08:53:35;99600.20;;;5.51;100.00
78615;BME280;67937;52.488;20.952;2023-12-20T08:56:03;99596.34;;;5.48;100.00
78615;BME280;67937;52.488;20.952;2023-12-20T08:58:31;99591.36;;;5.52;100.00
78615;BME280;67937;52.488;20.952;2023-12-20T09:01:00;99592.23;;;5.51;100.00
78615;BME280;67937;52.488;20.952;2023-12-20T09:03:28;99588.30;;;5.50;100.00
78615;BME280;67937;52.488;20.952;2023-12-20T09:05:56;99587.66;;;5.49;100.00
78615;BME280;67937;52.488;20.952;2023-12-20T09:08:24;99581.33;;;5.52;100.00
78615;BME280;67937;52.488;20.952;2023-12-20T09:10:52;99582.06;;;5.54;100.00
78615;BME280;67937;52.488;20.952;2023-12-20T09:13:20;99575.59;;;5.52;100.00
78615;BME280;67937;52.488;20.952;2023-12-20T09:15:48;99572.13;;;5.54;100.00
78615;BME280;67937;52.488;20.952;2023-12-20T09:18:16;99571.74;;;5.57;100.00
78615;BME280;67937;52.488;20.952;2023-12-20T09:20:44;99575.50;;;5.58;100.00
78615;BME280;67937;52.488;20.952;2023-12-20T09:23:12;99570.49;;;5.57;100.00
78615;BME280;67937;52.488;20.952;2023-12-20T09:25:40;99569.76;;;5.57;100.00
78615;BME280;67937;52.488;20.952;2023-12-20T09:28:08;99569.65;;;5.57;100.00
78615;BME280;67937;52.488;20.952;2023-12-20T09:30:36;99567.19;;;5.57;100.00
78615;BME280;67937;52.488;20.952;2023-12-20T09:33:06;99564.30;;;5.58;100.00
78615;BME280;67937;52.488;20.952;2023-12-20T09:35:34;99558.15;;;5.58;100.00
78615;BME280;67937;52.488;20.952;2023-12-20T09:38:02;99557.71;;;5.57;100.00
78615;BME280;67937;52.488;20.952;2023-12-20T09:40:32;99558.09;;;5.57;100.00
78615;BME280;67937;52.488;20.952;2023-12-20T09:43:04;99557.33;;;5.55;100.00
78615;BME280;67937;52.488;20.952;2023-12-20T09:45:36;99556.48;;;5.55;100.00
78615;BME280;67937;52.488;20.952;2023-12-20T09:48:05;99558.21;;;5.60;100.00
78615;BME280;67937;52.488;20.952;2023-12-20T09:50:33;99555.52;;;5.58;100.00
78615;BME280;67937;52.488;20.952;2023-12-20T09:53:02;99555.96;;;5.59;100.00
78615;BME280;67937;52.488;20.952;2023-12-20T09:55:32;99553.58;;;5.56;100.00
78615;BME280;67937;52.488;20.952;2023-12-20T09:58:01;99558.11;;;5.59;100.00
78615;BME280;67937;52.488;20.952;2023-12-20T10:00:29;99550.24;;;5.54;100.00
78615;BME280;67937;52.488;20.952;2023-12-20T10:02:58;99549.18;;;5.54;100.00
78615;BME280;67937;52.488;20.952;2023-12-20T10:05:29;99543.80;;;5.56;100.00
78615;BME280;67937;52.488;20.952;2023-12-20T10:07:59;99538.00;;;5.54;100.00
78615;BME280;67937;52.488;20.952;2023-12-20T10:10:27;99537.33;;;5.58;100.00
78615;BME280;67937;52.488;20.952;2023-12-20T10:13:03;99536.38;;;5.59;100.00
78615;BME280;67937;52.488;20.952;2023-12-20T10:15:33;99542.06;;;5.56;100.00
78615;BME280;67937;52.488;20.952;2023-12-20T10:18:02;99540.71;;;5.55;100.00
78615;BME280;67937;52.488;20.952;2023-12-20T10:20:30;99542.62;;;5.58;100.00
78615;BME280;67937;52.488;20.952;2023-12-20T10:23:00;99541.26;;;5.57;100.00
78615;BME280;67937;52.488;20.952;2023-12-20T10:25:28;99541.20;;;5.56;100.00
78615;BME280;67937;52.488;20.952;2023-12-20T10:30:38;99544.08;;;5.62;100.00
78615;BME280;67937;52.488;20.952;2023-12-20T10:33:07;99538.55;;;5.70;100.00
78615;BME280;67937;52.488;20.952;2023-12-20T10:35:36;99541.42;;;5.65;100.00
78615;BME280;67937;52.488;20.952;2023-12-20T10:38:05;99540.11;;;5.68;100.00
78615;BME280;67937;52.488;20.952;2023-12-20T10:40:36;99537.06;;;5.65;100.00
78615;BME280;67937;52.488;20.952;2023-12-20T10:43:05;99536.39;;;5.69;100.00
78615;BME280;67937;52.488;20.952;2023-12-20T10:45:33;99532.67;;;5.69;100.00
78615;BME280;67937;52.488;20.952;2023-12-20T10:48:02;99530.42;;;5.69;100.00
78615;BME280;67937;52.488;20.952;2023-12-20T10:50:31;99531.39;;;5.63;100.00
78615;BME280;67937;52.488;20.952;2023-12-20T10:52:59;99532.31;;;5.65;100.00
78615;BME280;67937;52.488;20.952;2023-12-20T10:55:27;99536.63;;;5.73;100.00
78615;BME280;67937;52.488;20.952;2023-12-20T10:58:01;99536.53;;;5.72;100.00
78615;BME280;67937;52.488;20.952;2023-12-20T11:00:29;99528.29;;;5.67;100.00
78615;BME280;67937;52.488;20.952;2023-12-20T11:03:02;99526.98;;;5.71;100.00
78615;BME280;67937;52.488;20.952;2023-12-20T11:06:01;99517.49;;;5.69;100.00
78615;BME280;67937;52.488;20.952;2023-12-20T11:08:32;99505.95;;;5.71;100.00
78615;BME280;67937;52.488;20.952;2023-12-20T11:11:20;99502.07;;;5.74;100.00
78615;BME280;67937;52.488;20.952;2023-12-20T11:14:01;99496.58;;;5.75;100.00
78615;BME280;67937;52.488;20.952;2023-12-20T11:16:33;99494.36;;;5.72;100.00
78615;BME280;67937;52.488;20.952;2023-12-20T11:19:05;99487.36;;;5.72;100.00
78615;BME280;67937;52.488;20.952;2023-12-20T11:21:33;99486.05;;;5.70;100.00
78615;BME280;67937;52.488;20.952;2023-12-20T11:24:02;99477.72;;;5.72;100.00
78615;BME280;67937;52.488;20.952;2023-12-20T11:26:31;99481.63;;;5.73;100.00
78615;BME280;67937;52.488;20.952;2023-12-20T11:29:30;99479.55;;;5.71;100.00
78615;BME280;67937;52.488;20.952;2023-12-20T11:32:03;99474.59;;;5.71;100.00
78615;BME280;67937;52.488;20.952;2023-12-20T11:34:32;99474.27;;;5.73;100.00
78615;BME280;67937;52.488;20.952;2023-12-20T11:37:02;99470.02;;;5.70;100.00
78615;BME280;67937;52.488;20.952;2023-12-20T11:39:31;99469.68;;;5.71;100.00
78615;BME280;67937;52.488;20.952;2023-12-20T11:42:04;99465.46;;;5.72;100.00
78615;BME280;67937;52.488;20.952;2023-12-20T11:44:33;99461.59;;;5.70;100.00
78615;BME280;67937;52.488;20.952;2023-12-20T11:47:00;99455.08;;;5.68;100.00
78615;BME280;67937;52.488;20.952;2023-12-20T11:49:29;99452.67;;;5.70;100.00
78615;BME280;67937;52.488;20.952;2023-12-20T11:51:57;99449.95;;;5.69;100.00
78615;BME280;67937;52.488;20.952;2023-12-20T11:54:26;99447.27;;;5.69;100.00
78615;BME280;67937;52.488;20.952;2023-12-20T11:56:54;99444.80;;;5.65;100.00
78615;BME280;67937;52.488;20.952;2023-12-20T11:59:23;99446.27;;;5.66;100.00
78615;BME280;67937;52.488;20.952;2023-12-20T12:01:51;99445.70;;;5.67;100.00
78615;BME280;67937;52.488;20.952;2023-12-20T12:04:19;99436.80;;;5.64;100.00
78615;BME280;67937;52.488;20.952;2023-12-20T12:06:47;99435.73;;;5.57;100.00
78615;BME280;67937;52.488;20.952;2023-12-20T12:09:15;99435.80;;;5.61;100.00
78615;BME280;67937;52.488;20.952;2023-12-20T12:11:43;99439.23;;;5.62;100.00
78615;BME280;67937;52.488;20.952;2023-12-20T12:14:11;99437.05;;;5.61;100.00
78615;BME280;67937;52.488;20.952;2023-12-20T12:16:41;99430.80;;;5.58;100.00
78615;BME280;67937;52.488;20.952;2023-12-20T12:19:23;99424.90;;;5.55;100.00
78615;BME280;67937;52.488;20.952;2023-12-20T12:22:03;99418.97;;;5.54;100.00
78615;BME280;67937;52.488;20.952;2023-12-20T12:24:32;99418.15;;;5.56;100.00
78615;BME280;67937;52.488;20.952;2023-12-20T12:27:00;99412.30;;;5.52;100.00
78615;BME280;67937;52.488;20.952;2023-12-20T12:29:28;99414.73;;;5.57;100.00
78615;BME280;67937;52.488;20.952;2023-12-20T12:31:56;99408.91;;;5.56;100.00
78615;BME280;67937;52.488;20.952;2023-12-20T12:34:27;99414.61;;;5.56;100.00
78615;BME280;67937;52.488;20.952;2023-12-20T12:36:56;99419.87;;;5.56;100.00
78615;BME280;67937;52.488;20.952;2023-12-20T12:39:24;99416.13;;;5.60;100.00
78615;BME280;67937;52.488;20.952;2023-12-20T12:41:53;99418.03;;;5.58;100.00
78615;BME280;67937;52.488;20.952;2023-12-20T12:44:21;99407.59;;;5.57;100.00
78615;BME280;67937;52.488;20.952;2023-12-20T12:46:52;99405.14;;;5.55;100.00
78615;BME280;67937;52.488;20.952;2023-12-20T12:49:21;99408.02;;;5.54;100.00
78615;BME280;67937;52.488;20.952;2023-12-20T12:51:49;99408.73;;;5.51;100.00
78615;BME280;67937;52.488;20.952;2023-12-20T12:54:17;99407.16;;;5.51;100.00
78615;BME280;67937;52.488;20.952;2023-12-20T12:56:45;99410.33;;;5.53;100.00
78615;BME280;67937;52.488;20.952;2023-12-20T12:59:14;99407.48;;;5.49;100.00
78615;BME280;67937;52.488;20.952;2023-12-20T13:01:42;99402.89;;;5.50;100.00